.
WxDataArchive / Data Records for 2008-04-20
2008-04-19 April 2008 2008-04-21

Data Records for Sunday, 20 April 2008

Time	Temp	Chill	HIndex	Humid	Dewpt	 Wind 	HiWind	WindDir	Rain 	Barom 
-----	----	-----	------	-----	-----	------	------	-------	-----	----- 
00:00	53.5	53.5	53.5	84	48.8	0	0	---	0.00	29.798 
00:05	53.3	53.3	53.3	85	48.9	0	1	292	0.00	29.795 
00:10	53.5	53.5	53.5	85	49.1	0	1	292	0.00	29.797 
00:15	53.5	53.5	53.5	86	49.4	0	1	292	0.00	29.795 
00:20	53.5	53.5	53.5	86	49.4	0	0	---	0.00	29.796 
00:25	53.5	53.5	53.5	86	49.4	0	1	292	0.00	29.797 
00:30	53.5	53.5	53.5	86	49.4	0	1	292	0.00	29.798 
00:35	53.5	53.5	53.5	86	49.4	0	1	292	0.00	29.799 
00:40	53.5	53.5	53.5	86	49.4	0	3	292	0.00	29.798 
00:45	53.6	53.6	53.6	86	49.5	0	3	270	0.00	29.799 
00:50	53.6	53.6	53.6	86	49.5	0	1	270	0.00	29.800 
00:55	53.6	53.6	53.6	86	49.5	0	1	270	0.00	29.802 
01:00	53.6	53.6	53.6	86	49.5	0	1	270	0.00	29.801 
01:05	53.6	53.6	53.6	87	49.8	1	2	270	0.00	29.800 
01:10	53.6	53.6	53.6	87	49.8	0	2	270	0.00	29.802 
01:15	53.6	53.6	53.6	87	49.8	0	2	270	0.00	29.803 
01:20	53.6	53.6	53.6	87	49.8	0	1	270	0.00	29.803 
01:25	53.6	53.6	53.6	87	49.8	0	2	270	0.00	29.799 
01:30	53.6	53.6	53.6	87	49.8	0	2	270	0.00	29.797 
01:35	53.6	53.6	53.6	87	49.8	0	1	270	0.00	29.797 
01:40	53.6	53.6	53.6	87	49.8	0	1	270	0.00	29.795 
01:45	53.5	53.5	53.5	87	49.7	0	1	270	0.00	29.789 
01:50	53.5	53.5	53.5	87	49.7	0	1	270	0.00	29.787 
01:55	53.5	53.5	53.5	88	50.0	0	1	270	0.00	29.784 
02:00	53.3	53.3	53.3	88	49.8	0	2	270	0.00	29.785 
02:05	53.2	53.2	53.2	88	49.7	0	1	270	0.00	29.789 
02:10	53.1	53.1	53.1	88	49.6	0	1	270	0.00	29.790 
02:15	52.9	52.9	52.9	88	49.4	1	3	270	0.00	29.791 
02:20	52.8	52.8	52.8	88	49.3	0	2	270	0.00	29.793 
02:25	52.8	52.8	52.8	88	49.3	0	3	270	0.00	29.791 
02:30	52.6	52.6	52.6	88	49.1	0	1	270	0.00	29.790 
02:35	52.5	52.5	52.5	89	49.4	0	2	270	0.00	29.790 
02:40	52.2	52.2	52.2	89	49.1	0	1	270	0.00	29.791 
02:45	52.2	52.2	52.2	89	49.1	0	1	270	0.00	29.791 
02:50	52.2	52.2	52.2	89	49.1	0	0	---	0.00	29.791 
02:55	52.2	52.2	52.2	90	49.4	0	1	270	0.00	29.791 
03:00	52.2	52.2	52.2	90	49.4	0	1	270	0.00	29.791 
03:05	52.2	52.2	52.2	90	49.4	0	1	270	0.00	29.792 
03:10	52.2	52.2	52.2	90	49.4	0	2	270	0.00	29.791 
03:15	52.2	52.2	52.2	90	49.4	0	2	270	0.00	29.791 
03:20	52.2	52.2	52.2	90	49.4	0	2	270	0.00	29.793 
03:25	52.2	52.2	52.2	90	49.4	0	1	270	0.00	29.792 
03:30	52.3	52.3	52.3	90	49.5	0	1	270	0.00	29.791 
03:35	52.3	52.3	52.3	90	49.5	0	1	270	0.00	29.790 
03:40	52.2	52.2	52.2	90	49.4	0	1	270	0.00	29.790 
03:45	52.2	52.2	52.2	90	49.4	0	1	270	0.00	29.790 
03:50	52.2	52.2	52.2	90	49.4	0	1	270	0.00	29.790 
03:55	52.0	52.0	52.0	90	49.2	0	1	270	0.00	29.792 
04:00	52.0	52.0	52.0	90	49.2	0	1	270	0.00	29.794 
04:05	52.0	52.0	52.0	90	49.2	0	1	270	0.00	29.793 
04:10	52.0	52.0	52.0	90	49.2	0	1	270	0.00	29.796 
04:15	52.0	52.0	52.0	91	49.5	0	0	---	0.00	29.796 
04:20	52.2	52.2	52.2	91	49.7	0	1	270	0.00	29.796 
04:25	52.2	52.2	52.2	91	49.7	0	1	270	0.00	29.794 
04:30	52.2	52.2	52.2	91	49.7	0	1	270	0.00	29.791 
04:35	52.2	52.2	52.2	91	49.7	0	2	270	0.00	29.789 
04:40	52.2	52.2	52.2	91	49.7	0	1	270	0.00	29.788 
04:45	52.2	52.2	52.2	91	49.7	0	1	270	0.00	29.788 
04:50	52.2	52.2	52.2	91	49.7	0	3	270	0.00	29.789 
04:55	52.3	52.3	52.3	91	49.8	0	1	270	0.00	29.790 
05:00	52.3	52.3	52.3	91	49.8	0	2	270	0.00	29.792 
05:05	52.3	52.3	52.3	92	50.0	0	1	270	0.00	29.795 
05:10	52.3	52.3	52.3	92	50.0	0	1	270	0.00	29.794 
05:15	52.3	52.3	52.3	92	50.0	0	1	270	0.00	29.796 
05:20	52.3	52.3	52.3	92	50.0	0	1	270	0.00	29.795 
05:25	52.3	52.3	52.3	92	50.0	0	1	270	0.00	29.794 
05:30	52.2	52.2	52.2	92	49.9	0	1	270	0.00	29.802 
05:35	52.2	52.2	52.2	92	49.9	0	1	270	0.00	29.804 
05:40	52.3	52.3	52.3	93	50.3	0	1	270	0.00	29.803 
05:45	52.3	52.3	52.3	93	50.3	0	0	---	0.00	29.803 
05:50	52.3	52.3	52.3	93	50.3	0	1	270	0.00	29.804 
05:55	52.3	52.3	52.3	93	50.3	0	0	---	0.00	29.804 
06:00	52.3	52.3	52.3	93	50.3	0	1	270	0.00	29.806 
06:05	52.3	52.3	52.3	93	50.3	0	1	270	0.00	29.809 
06:10	52.3	52.3	52.3	93	50.3	0	1	270	0.00	29.815 
06:15	52.3	52.3	52.3	93	50.3	0	2	270	0.00	29.817 
06:20	52.3	52.3	52.3	93	50.3	0	1	270	0.00	29.822 
06:25	52.3	52.3	52.3	93	50.3	0	2	270	0.00	29.822 
06:30	52.3	52.3	52.3	93	50.3	0	2	270	0.00	29.823 
06:35	52.5	52.5	52.5	93	50.5	0	1	270	0.00	29.822 
06:40	52.5	52.5	52.5	93	50.5	0	1	270	0.00	29.823 
06:45	52.5	52.5	52.5	93	50.5	0	2	270	0.00	29.824 
06:50	52.5	52.5	52.5	93	50.5	0	1	270	0.01	29.825 
06:55	52.5	52.5	52.5	93	50.5	0	1	270	0.00	29.824 
07:00	52.5	52.5	52.5	93	50.5	0	1	270	0.00	29.824 
07:05	52.3	52.3	52.3	94	50.6	0	1	270	0.00	29.828 
07:10	52.3	52.3	52.3	94	50.6	0	1	270	0.00	29.827 
07:15	52.3	52.3	52.3	94	50.6	0	0	---	0.00	29.826 
07:20	52.3	52.3	52.3	94	50.6	0	1	270	0.00	29.825 
07:25	52.3	52.3	52.3	94	50.6	0	0	---	0.00	29.823 
07:30	52.5	52.5	52.5	94	50.8	0	1	270	0.00	29.822 
07:35	52.5	52.5	52.5	94	50.8	0	0	---	0.00	29.822 
07:40	52.5	52.5	52.5	94	50.8	0	1	270	0.00	29.822 
07:45	52.5	52.5	52.5	94	50.8	0	1	270	0.00	29.822 
07:50	52.5	52.5	52.5	94	50.8	0	0	---	0.00	29.823 
07:55	52.5	52.5	52.5	94	50.8	0	0	---	0.00	29.823 
08:00	52.5	52.5	52.5	94	50.8	0	0	---	0.00	29.827 
08:05	52.6	52.6	52.6	94	50.9	0	1	270	0.00	29.829 
08:10	52.6	52.6	52.6	94	50.9	0	2	270	0.00	29.828 
08:15	52.8	52.8	52.8	94	51.1	0	1	270	0.00	29.829 
08:20	52.9	52.9	52.9	94	51.2	0	2	270	0.00	29.830 
08:25	53.2	53.2	53.2	93	51.2	0	2	248	0.00	29.826 
08:30	53.3	53.3	53.3	93	51.3	0	1	248	0.00	29.825 
08:35	53.5	53.5	53.5	92	51.2	0	1	248	0.00	29.823 
08:40	53.8	53.8	53.8	92	51.5	0	1	248	0.00	29.823 
08:45	54.1	54.1	54.1	92	51.8	0	1	248	0.00	29.827 
08:50	54.4	54.4	54.4	91	51.8	0	1	248	0.00	29.832 
08:55	54.5	54.5	54.5	90	51.6	0	1	248	0.00	29.834 
09:00	54.8	54.8	54.8	89	51.6	0	0	---	0.00	29.837 
09:05	55.0	55.0	55.0	88	51.5	0	0	---	0.00	29.839 
09:10	55.1	55.1	55.1	88	51.6	0	1	248	0.00	29.841 
09:15	55.1	55.1	55.1	87	51.3	0	1	248	0.00	29.851 
09:20	55.0	55.0	55.0	86	50.9	0	1	248	0.00	29.852 
09:25	55.1	55.1	55.1	86	51.0	0	1	248	0.00	29.855 
09:30	55.1	55.1	55.1	86	51.0	0	1	248	0.00	29.855 
09:35	55.1	55.1	55.1	86	51.0	0	1	248	0.00	29.856 
09:40	55.3	55.3	55.3	86	51.2	0	1	248	0.00	29.858 
09:45	55.4	55.4	55.4	85	51.0	0	1	248	0.00	29.858 
09:50	55.6	55.6	55.6	86	51.5	0	1	248	0.00	29.858 
09:55	55.6	55.6	55.6	85	51.2	0	1	248	0.00	29.855 
10:00	55.7	55.7	55.7	85	51.3	0	1	248	0.00	29.855 
10:05	56.0	56.0	56.0	85	51.6	0	2	248	0.00	29.854 
10:10	56.3	56.3	56.3	84	51.5	0	2	248	0.00	29.853 
10:15	56.5	56.5	56.5	84	51.7	0	1	248	0.00	29.852 
10:20	56.9	56.9	56.9	85	52.4	0	2	248	0.00	29.852 
10:25	57.5	57.5	57.5	84	52.7	0	1	248	0.00	29.849 
10:30	57.8	57.8	57.8	81	52.0	1	3	90	0.00	29.850 
10:35	58.4	58.4	58.4	81	52.6	0	2	90	0.00	29.849 
10:40	58.7	58.7	58.7	80	52.5	1	2	225	0.00	29.850 
10:45	59.0	59.0	59.0	78	52.1	1	4	225	0.00	29.850 
10:50	59.0	59.0	59.0	76	51.4	1	4	248	0.00	29.850 
10:55	59.2	59.2	59.2	77	52.0	1	3	248	0.00	29.852 
11:00	59.8	59.8	59.8	79	53.3	1	3	248	0.00	29.850 
11:05	60.4	60.4	60.4	77	53.2	1	4	248	0.00	29.849 
11:10	60.5	60.5	60.5	76	52.9	1	5	248	0.00	29.850 
11:15	61.0	61.0	61.0	75	53.0	1	4	248	0.00	29.850 
11:20	60.9	60.9	60.9	73	52.2	1	3	248	0.00	29.851 
11:25	60.9	60.9	60.9	74	52.6	0	1	248	0.00	29.851 
11:30	60.9	60.9	60.9	74	52.6	1	5	248	0.00	29.851 
11:35	60.9	60.9	60.9	75	52.9	0	2	248	0.00	29.850 
11:40	60.9	60.9	60.9	73	52.2	0	3	248	0.00	29.850 
11:45	60.5	60.5	60.5	74	52.2	1	3	248	0.00	29.851 
11:50	60.4	60.4	60.4	74	52.1	1	2	270	0.00	29.851 
11:55	60.4	60.4	60.4	74	52.1	0	1	270	0.00	29.853 
12:00	60.5	60.5	60.5	74	52.2	0	1	270	0.00	29.854 
12:05	60.7	60.7	60.7	73	52.0	1	3	90	0.00	29.856 
12:10	60.7	60.7	60.7	74	52.4	1	3	112	0.00	29.859 
12:15	60.5	60.5	60.5	74	52.2	1	4	90	0.00	29.864 
12:20	60.7	60.7	60.7	74	52.4	0	2	135	0.00	29.861 
12:25	60.7	60.7	60.7	75	52.7	0	2	202	0.00	29.861 
12:30	60.9	60.9	60.9	74	52.6	0	3	135	0.00	29.863 
12:35	60.5	60.5	60.5	74	52.2	2	3	112	0.00	29.865 
12:40	60.4	60.4	60.4	76	52.8	1	4	112	0.00	29.867 
12:45	60.2	60.2	60.2	74	51.9	2	4	112	0.00	29.867 
12:50	60.2	60.2	60.2	75	52.2	1	3	135	0.00	29.867 
12:55	60.4	60.4	60.4	75	52.4	1	3	112	0.00	29.867 
13:00	60.5	60.5	60.5	75	52.5	1	4	135	0.00	29.866 
13:05	60.7	60.7	60.7	75	52.7	1	3	112	0.00	29.869 
13:10	60.5	60.5	60.5	74	52.2	1	4	112	0.00	29.872 
13:15	60.4	60.4	60.4	75	52.4	1	3	112	0.00	29.875 
13:20	60.2	60.2	60.2	75	52.2	1	3	112	0.00	29.876 
13:25	60.1	60.1	60.1	75	52.1	0	2	112	0.00	29.878 
13:30	59.9	59.9	59.9	76	52.3	0	2	112	0.00	29.880 
13:35	59.8	59.8	59.8	76	52.2	1	3	112	0.00	29.881 
13:40	59.6	59.6	59.6	76	52.0	0	2	158	0.00	29.882 
13:45	59.6	59.6	59.6	76	52.0	1	3	112	0.00	29.880 
13:50	59.5	59.5	59.5	77	52.3	1	3	135	0.00	29.879 
13:55	59.5	59.5	59.5	77	52.3	1	3	135	0.00	29.881 
14:00	59.3	59.3	59.3	78	52.4	0	3	112	0.00	29.882 
14:05	59.2	59.2	59.2	78	52.3	0	2	158	0.00	29.884 
14:10	59.2	59.2	59.2	79	52.7	0	1	158	0.00	29.884 
14:15	59.2	59.2	59.2	79	52.7	0	1	158	0.00	29.885 
14:20	59.2	59.2	59.2	79	52.7	0	1	158	0.00	29.886 
14:25	59.2	59.2	59.2	78	52.3	0	2	158	0.00	29.887 
14:30	59.2	59.2	59.2	78	52.3	1	2	158	0.00	29.888 
14:35	59.2	59.2	59.2	78	52.3	1	2	112	0.00	29.886 
14:40	59.2	59.2	59.2	78	52.3	1	3	112	0.00	29.885 
14:45	59.2	59.2	59.2	77	52.0	0	2	112	0.00	29.885 
14:50	59.2	59.2	59.2	77	52.0	1	2	135	0.00	29.885 
14:55	59.2	59.2	59.2	76	51.6	1	3	135	0.00	29.885 
15:00	59.2	59.2	59.2	76	51.6	0	2	158	0.00	29.883 
15:05	59.3	59.3	59.3	76	51.7	1	3	112	0.00	29.884 
15:10	59.5	59.5	59.5	77	52.3	0	3	158	0.00	29.882 
15:15	59.5	59.5	59.5	76	51.9	1	3	112	0.00	29.882 
15:20	59.5	59.5	59.5	76	51.9	1	2	135	0.00	29.883 
15:25	59.5	59.5	59.5	75	51.6	1	3	135	0.00	29.883 
15:30	59.3	59.3	59.3	76	51.7	1	3	112	0.00	29.886 
15:35	59.2	59.2	59.2	75	51.3	1	5	112	0.00	29.886 
15:40	58.9	58.9	58.9	76	51.3	1	3	112	0.00	29.889 
15:45	58.7	58.7	58.7	77	51.5	1	3	135	0.00	29.891 
15:50	58.4	58.4	58.4	77	51.2	1	3	90	0.00	29.890 
15:55	58.4	58.4	58.4	78	51.6	1	3	135	0.00	29.894 
16:00	58.3	58.3	58.3	78	51.5	1	4	112	0.00	29.897 
16:05	58.3	58.3	58.3	79	51.8	1	3	112	0.00	29.900 
16:10	58.3	58.3	58.3	78	51.5	1	3	135	0.00	29.900 
16:15	58.3	58.3	58.3	78	51.5	1	4	135	0.00	29.900 
16:20	58.4	58.4	58.4	78	51.6	1	3	135	0.00	29.901 
16:25	58.4	58.4	58.4	78	51.6	1	5	112	0.00	29.901 
16:30	58.6	58.6	58.6	78	51.8	1	2	112	0.00	29.901 
16:35	58.7	58.7	58.7	78	51.9	1	3	112	0.00	29.902 
16:40	58.7	58.7	58.7	77	51.5	1	4	135	0.00	29.903 
16:45	58.9	58.9	58.9	78	52.0	0	2	135	0.00	29.902 
16:50	59.0	59.0	59.0	77	51.8	1	3	112	0.00	29.905 
16:55	59.0	59.0	59.0	77	51.8	1	2	112	0.00	29.905 
17:00	59.2	59.2	59.2	77	52.0	1	3	90	0.00	29.905 
17:05	59.3	59.3	59.3	77	52.1	1	3	90	0.00	29.907 
17:10	59.3	59.3	59.3	77	52.1	2	4	112	0.00	29.910 
17:15	59.3	59.3	59.3	77	52.1	2	5	112	0.00	29.910 
17:20	59.5	59.5	59.5	77	52.3	1	4	135	0.00	29.908 
17:25	59.6	59.6	59.6	77	52.4	2	6	90	0.00	29.911 
17:30	59.5	59.5	59.5	77	52.3	2	5	112	0.00	29.912 
17:35	59.5	59.5	59.5	77	52.3	1	3	90	0.00	29.913 
17:40	59.6	59.6	59.6	77	52.4	2	5	90	0.00	29.913 
17:45	59.6	59.6	59.6	77	52.4	2	5	135	0.00	29.913 
17:50	59.6	59.6	59.6	77	52.4	2	6	90	0.00	29.914 
17:55	59.5	59.5	59.5	77	52.3	1	4	112	0.00	29.914 
18:00	59.5	59.5	59.5	77	52.3	1	4	135	0.00	29.914 
18:05	59.3	59.3	59.3	77	52.1	1	4	135	0.00	29.915 
18:10	59.3	59.3	59.3	78	52.4	1	3	112	0.00	29.916 
18:15	59.2	59.2	59.2	78	52.3	1	3	112	0.00	29.915 
18:20	59.2	59.2	59.2	79	52.7	1	4	135	0.00	29.915 
18:25	59.0	59.0	59.0	79	52.5	1	4	112	0.00	29.915 
18:30	58.9	58.9	58.9	80	52.7	1	3	112	0.00	29.915 
18:35	58.9	58.9	58.9	80	52.7	1	4	112	0.00	29.915 
18:40	58.7	58.7	58.7	81	52.9	1	2	90	0.00	29.916 
18:45	58.6	58.6	58.6	81	52.8	1	3	112	0.00	29.917 
18:50	58.4	58.4	58.4	81	52.6	1	4	112	0.00	29.918 
18:55	58.4	58.4	58.4	81	52.6	1	3	112	0.00	29.920 
19:00	58.3	58.3	58.3	81	52.5	0	2	112	0.00	29.921 
19:05	58.3	58.3	58.3	81	52.5	1	2	112	0.00	29.921 
19:10	58.1	58.1	58.1	81	52.3	1	2	112	0.00	29.920 
19:15	58.1	58.1	58.1	81	52.3	0	3	112	0.00	29.920 
19:20	58.0	58.0	58.0	81	52.2	0	2	90	0.00	29.919 
19:25	58.0	58.0	58.0	81	52.2	0	2	90	0.00	29.924 
19:30	57.8	57.8	57.8	81	52.0	0	2	90	0.00	29.927 
19:35	57.6	57.6	57.6	82	52.1	0	2	90	0.00	29.929 
19:40	57.6	57.6	57.6	82	52.1	0	2	112	0.00	29.929 
19:45	57.5	57.5	57.5	82	52.0	0	2	135	0.00	29.931 
19:50	57.3	57.3	57.3	83	52.2	0	2	112	0.00	29.931 
19:55	57.0	57.0	57.0	83	51.9	0	1	112	0.00	29.931 
20:00	56.9	56.9	56.9	83	51.8	0	1	112	0.00	29.933 
20:05	56.7	56.7	56.7	84	51.9	0	2	112	0.00	29.932 
20:10	56.6	56.6	56.6	84	51.8	0	1	112	0.00	29.934 
20:15	56.5	56.5	56.5	84	51.7	0	2	112	0.00	29.937 
20:20	56.3	56.3	56.3	84	51.5	0	1	135	0.00	29.940 
20:25	56.2	56.2	56.2	85	51.7	0	2	135	0.00	29.945 
20:30	56.0	56.0	56.0	85	51.6	0	2	135	0.00	29.942 
20:35	56.0	56.0	56.0	85	51.6	0	1	135	0.00	29.942 
20:40	55.7	55.7	55.7	85	51.3	0	1	135	0.00	29.946 
20:45	55.4	55.4	55.4	86	51.3	0	1	135	0.00	29.948 
20:50	55.1	55.1	55.1	87	51.3	0	1	135	0.00	29.949 
20:55	55.0	55.0	55.0	87	51.2	0	0	---	0.00	29.952 
21:00	54.7	54.7	54.7	88	51.2	0	0	---	0.00	29.953 
21:05	54.5	54.5	54.5	88	51.0	0	0	---	0.00	29.954 
21:10	54.2	54.2	54.2	88	50.7	0	1	135	0.00	29.954 
21:15	53.9	53.9	53.9	88	50.4	0	0	---	0.00	29.956 
21:20	53.6	53.6	53.6	89	50.4	0	0	---	0.00	29.960 
21:25	53.5	53.5	53.5	90	50.6	0	1	135	0.00	29.961 
21:30	53.6	53.6	53.6	90	50.7	0	1	135	0.00	29.960 
21:35	53.5	53.5	53.5	90	50.6	0	1	135	0.00	29.961 
21:40	53.2	53.2	53.2	90	50.3	0	0	---	0.00	29.963 
21:45	52.9	52.9	52.9	90	50.0	0	0	---	0.00	29.963 
21:50	52.6	52.6	52.6	90	49.7	0	0	---	0.00	29.965 
21:55	52.2	52.2	52.2	90	49.4	0	0	---	0.00	29.967 
22:00	51.9	51.9	51.9	91	49.4	0	0	---	0.00	29.968 
22:05	51.6	51.6	51.6	91	49.1	0	0	---	0.00	29.967 
22:10	51.3	51.3	51.3	92	49.1	0	0	---	0.00	29.970 
22:15	51.0	51.0	51.0	92	48.8	0	0	---	0.00	29.970 
22:20	50.8	50.8	50.8	92	48.6	0	1	135	0.00	29.970 
22:25	50.7	50.7	50.7	92	48.5	0	0	---	0.00	29.971 
22:30	50.5	50.5	50.5	93	48.6	0	0	---	0.00	29.971 
22:35	50.4	50.4	50.4	93	48.5	0	1	135	0.00	29.971 
22:40	50.4	50.4	50.4	94	48.7	0	1	135	0.00	29.970 
22:45	50.4	50.4	50.4	94	48.7	0	1	135	0.00	29.972 
22:50	50.4	50.4	50.4	94	48.7	0	1	135	0.00	29.974 
22:55	50.2	50.2	50.2	94	48.5	0	1	135	0.00	29.975 
23:00	50.2	50.2	50.2	94	48.5	0	1	135	0.00	29.976 
23:05	50.2	50.2	50.2	95	48.8	0	1	135	0.00	29.976 
23:10	50.2	50.2	50.2	95	48.8	0	1	135	0.00	29.975 
23:15	50.2	50.2	50.2	95	48.8	0	1	135	0.00	29.972 
23:20	50.4	50.4	50.4	95	49.0	0	1	135	0.00	29.973 
23:25	50.2	50.2	50.2	95	48.8	0	0	---	0.00	29.972 
23:30	50.1	50.1	50.1	95	48.7	0	0	---	0.00	29.975 
23:35	49.9	49.9	49.9	95	48.5	0	0	---	0.00	29.977 
23:40	49.5	49.5	49.5	95	48.1	0	0	---	0.00	29.978 
23:45	49.1	49.1	49.1	95	47.7	0	0	---	0.00	29.978 
23:50	48.9	48.9	48.9	95	47.5	0	1	135	0.00	29.979 
23:55	48.8	48.8	48.8	95	47.4	0	0	---	0.00	29.980 

CoCoRaHS
IN-AL-39
A2 Web Hosting
Creative Commons License
GoDaddy
Look for:

loaded 2017-12-12 06:58:10 • last modified 2010-11-18 10:43:29
Privacy PolicyDisclaimer
• wx.awcolley.com is powered by PmWiki v.2002016 •
• all content (unless otherwise noted) © 2017 A W Colley